Time;durP1;ratioP1;P1;durP2;ratioP2;P2;SDS_P1;SDS_P2;PMS_P1;PMS_P2;Temp;Humidity;BMP_temperature;BMP_pressure;BME280_temperature;BME280_humidity;BME280_pressure;Samples;Min_cycle;Max_cycle;Signal;HPM_P1;HPM_P2
2024/04/09 00:00:10;;;;;;;5.3;2.2;;;;;;;;;;;;;
2024/04/09 00:02:35;;;;;;;7.4;2;;;;;;;;;;;;;
2024/04/09 00:05:00;;;;;;;8.2;2.8;;;;;;;;;;;;;
2024/04/09 00:07:25;;;;;;;7.4;2;;;;;;;;;;;;;
2024/04/09 00:09:51;;;;;;;7;2.5;;;;;;;;;;;;;
2024/04/09 00:12:21;;;;;;;10.7;2.6;;;;;;;;;;;;;
2024/04/09 00:14:47;;;;;;;11.2;2.7;;;;;;;;;;;;;
2024/04/09 00:17:06;;;;;;;5.7;2.2;;;;;;;;;;;;;
2024/04/09 00:19:31;;;;;;;8.9;2.8;;;;;;;;;;;;;
2024/04/09 00:21:55;;;;;;;9.4;2.5;;;;;;;;;;;;;
2024/04/09 00:24:21;;;;;;;11.8;2.8;;;;;;;;;;;;;
2024/04/09 00:26:46;;;;;;;8.7;2.2;;;;;;;;;;;;;
2024/04/09 00:29:11;;;;;;;8;2.2;;;;;;;;;;;;;
2024/04/09 00:31:36;;;;;;;10.7;2.6;;;;;;;;;;;;;
2024/04/09 00:34:01;;;;;;;8;2.4;;;;;;;;;;;;;
2024/04/09 00:36:26;;;;;;;7.2;2.4;;;;;;;;;;;;;
2024/04/09 00:38:54;;;;;;;6.4;2.3;;;;;;;;;;;;;
2024/04/09 00:41:16;;;;;;;6.5;2.3;;;;;;;;;;;;;
2024/04/09 00:43:45;;;;;;;7.9;2.7;;;;;;;;;;;;;
2024/04/09 00:46:07;;;;;;;8;2.4;;;;;;;;;;;;;
2024/04/09 00:48:33;;;;;;;7.5;2.5;;;;;;;;;;;;;
2024/04/09 00:50:57;;;;;;;7.4;2.2;;;;;;;;;;;;;
2024/04/09 00:53:22;;;;;;;10.7;2.5;;;;;;;;;;;;;
2024/04/09 00:55:47;;;;;;;10.1;2.3;;;;;;;;;;;;;
2024/04/09 00:58:13;;;;;;;7.2;2.2;;;;;;;;;;;;;
2024/04/09 01:00:40;;;;;;;6.9;2.2;;;;;;;;;;;;;
2024/04/09 01:03:02;;;;;;;5.8;2.3;;;;;;;;;;;;;
2024/04/09 01:05:27;;;;;;;7.4;2.8;;;;;;;;;;;;;
2024/04/09 01:07:52;;;;;;;5.6;2.5;;;;;;;;;;;;;
2024/04/09 01:10:18;;;;;;;9.9;2.6;;;;;;;;;;;;;
2024/04/09 01:12:43;;;;;;;9.1;2.4;;;;;;;;;;;;;
2024/04/09 01:15:10;;;;;;;6.1;2.1;;;;;;;;;;;;;
2024/04/09 01:17:34;;;;;;;7.9;2.1;;;;;;;;;;;;;
2024/04/09 01:19:58;;;;;;;8.1;2.2;;;;;;;;;;;;;
2024/04/09 01:22:23;;;;;;;7.8;2.4;;;;;;;;;;;;;
2024/04/09 01:24:50;;;;;;;7.9;2.7;;;;;;;;;;;;;
2024/04/09 01:27:14;;;;;;;7.7;2.6;;;;;;;;;;;;;
2024/04/09 01:29:39;;;;;;;9.4;2.6;;;;;;;;;;;;;
2024/04/09 01:32:06;;;;;;;6.1;2.5;;;;;;;;;;;;;
2024/04/09 01:34:29;;;;;;;10.9;2.7;;;;;;;;;;;;;
2024/04/09 01:36:55;;;;;;;9.3;2.5;;;;;;;;;;;;;
2024/04/09 01:39:19;;;;;;;7.2;2.8;;;;;;;;;;;;;
2024/04/09 01:41:44;;;;;;;8.3;2.3;;;;;;;;;;;;;
2024/04/09 01:44:09;;;;;;;6.2;2.4;;;;;;;;;;;;;
2024/04/09 01:46:37;;;;;;;8.3;2.6;;;;;;;;;;;;;
2024/04/09 01:49:00;;;;;;;12.3;2.7;;;;;;;;;;;;;
2024/04/09 01:51:25;;;;;;;11.5;2.8;;;;;;;;;;;;;
2024/04/09 01:56:08;;;;;;;10.9;2.9;;;;;;;;;;;;;
2024/04/09 01:58:34;;;;;;;10;3;;;;;;;;;;;;;
2024/04/09 02:00:58;;;;;;;7.1;2.5;;;;;;;;;;;;;
2024/04/09 02:03:24;;;;;;;8;2.5;;;;;;;;;;;;;
2024/04/09 02:05:49;;;;;;;8;2.8;;;;;;;;;;;;;
2024/04/09 02:08:13;;;;;;;9;2.8;;;;;;;;;;;;;
2024/04/09 02:10:41;;;;;;;10.3;2.7;;;;;;;;;;;;;
2024/04/09 02:13:04;;;;;;;11.4;2.8;;;;;;;;;;;;;
2024/04/09 02:15:29;;;;;;;9.1;2.4;;;;;;;;;;;;;
2024/04/09 02:17:54;;;;;;;8.2;2.5;;;;;;;;;;;;;
2024/04/09 02:20:19;;;;;;;8.1;2.4;;;;;;;;;;;;;
2024/04/09 02:22:44;;;;;;;7.3;2.5;;;;;;;;;;;;;
2024/04/09 02:25:09;;;;;;;9.1;2.5;;;;;;;;;;;;;
2024/04/09 02:27:35;;;;;;;9.3;2.4;;;;;;;;;;;;;
2024/04/09 02:30:02;;;;;;;7.9;2.6;;;;;;;;;;;;;
2024/04/09 02:32:25;;;;;;;8.9;2.7;;;;;;;;;;;;;
2024/04/09 02:34:50;;;;;;;5.5;2.3;;;;;;;;;;;;;
2024/04/09 02:37:15;;;;;;;11.9;2.5;;;;;;;;;;;;;
2024/04/09 02:39:40;;;;;;;8.9;2.7;;;;;;;;;;;;;
2024/04/09 02:42:10;;;;;;;9.4;2.4;;;;;;;;;;;;;
2024/04/09 02:44:31;;;;;;;9.8;2.8;;;;;;;;;;;;;
2024/04/09 02:46:55;;;;;;;6.9;2.4;;;;;;;;;;;;;
2024/04/09 02:49:21;;;;;;;8.4;2.7;;;;;;;;;;;;;
2024/04/09 02:51:45;;;;;;;6.9;2.7;;;;;;;;;;;;;
2024/04/09 02:54:11;;;;;;;8.9;3;;;;;;;;;;;;;
2024/04/09 02:56:36;;;;;;;7;2.8;;;;;;;;;;;;;
2024/04/09 02:59:01;;;;;;;8.4;2.6;;;;;;;;;;;;;
2024/04/09 03:01:26;;;;;;;5.3;2.7;;;;;;;;;;;;;
2024/04/09 03:03:51;;;;;;;10.5;2.9;;;;;;;;;;;;;
2024/04/09 03:06:16;;;;;;;11.8;2.9;;;;;;;;;;;;;
2024/04/09 03:08:41;;;;;;;13.7;3.2;;;;;;;;;;;;;
2024/04/09 03:11:07;;;;;;;10.9;3.6;;;;;;;;;;;;;
2024/04/09 03:13:32;;;;;;;11.6;3.2;;;;;;;;;;;;;
2024/04/09 03:15:57;;;;;;;11.5;3.8;;;;;;;;;;;;;
2024/04/09 03:18:23;;;;;;;12.2;3.7;;;;;;;;;;;;;
2024/04/09 03:20:47;;;;;;;9.9;3;;;;;;;;;;;;;
2024/04/09 03:23:12;;;;;;;9.6;3.1;;;;;;;;;;;;;
2024/04/09 03:25:38;;;;;;;12.6;3.7;;;;;;;;;;;;;
2024/04/09 03:28:03;;;;;;;8.4;3.4;;;;;;;;;;;;;
2024/04/09 03:30:28;;;;;;;10.2;3.6;;;;;;;;;;;;;
2024/04/09 03:32:53;;;;;;;9.2;3.3;;;;;;;;;;;;;
2024/04/09 03:35:18;;;;;;;11.5;3;;;;;;;;;;;;;
2024/04/09 03:37:43;;;;;;;11.2;3.3;;;;;;;;;;;;;
2024/04/09 03:40:09;;;;;;;12.8;3;;;;;;;;;;;;;
2024/04/09 03:42:34;;;;;;;8.7;2.9;;;;;;;;;;;;;
2024/04/09 03:44:59;;;;;;;8.2;2.7;;;;;;;;;;;;;
2024/04/09 03:47:24;;;;;;;11.6;3.2;;;;;;;;;;;;;
2024/04/09 03:49:49;;;;;;;11.6;2.8;;;;;;;;;;;;;
2024/04/09 03:52:14;;;;;;;14.8;3;;;;;;;;;;;;;
2024/04/09 03:54:39;;;;;;;12.2;3.2;;;;;;;;;;;;;
2024/04/09 03:57:05;;;;;;;11.1;3;;;;;;;;;;;;;
2024/04/09 03:59:30;;;;;;;8.9;3;;;;;;;;;;;;;
2024/04/09 04:02:27;;;;;;;9.9;2.9;;;;;;;;;;;;;
2024/04/09 04:04:52;;;;;;;9.3;3.3;;;;;;;;;;;;;
2024/04/09 04:07:17;;;;;;;11.7;3.3;;;;;;;;;;;;;
2024/04/09 04:09:42;;;;;;;10.5;3.3;;;;;;;;;;;;;
2024/04/09 04:12:08;;;;;;;11;3.3;;;;;;;;;;;;;
2024/04/09 04:14:33;;;;;;;14.3;3.6;;;;;;;;;;;;;
2024/04/09 04:16:58;;;;;;;11.2;3.3;;;;;;;;;;;;;
2024/04/09 04:19:23;;;;;;;9.8;2.5;;;;;;;;;;;;;
2024/04/09 04:21:48;;;;;;;10;2.7;;;;;;;;;;;;;
2024/04/09 04:24:14;;;;;;;12.1;3.4;;;;;;;;;;;;;
2024/04/09 04:26:38;;;;;;;8.5;2.9;;;;;;;;;;;;;
2024/04/09 04:29:05;;;;;;;6.4;2.4;;;;;;;;;;;;;
2024/04/09 04:31:29;;;;;;;13.3;3.4;;;;;;;;;;;;;
2024/04/09 04:33:54;;;;;;;13.1;3.5;;;;;;;;;;;;;
2024/04/09 04:36:20;;;;;;;10.6;3.3;;;;;;;;;;;;;
2024/04/09 04:38:44;;;;;;;14.8;3.2;;;;;;;;;;;;;
2024/04/09 04:41:10;;;;;;;8.3;2.6;;;;;;;;;;;;;
2024/04/09 04:43:35;;;;;;;10.1;3.1;;;;;;;;;;;;;
2024/04/09 04:46:00;;;;;;;8.9;3;;;;;;;;;;;;;
2024/04/09 04:48:25;;;;;;;11.9;3.1;;;;;;;;;;;;;
2024/04/09 04:50:52;;;;;;;10.4;3.6;;;;;;;;;;;;;
2024/04/09 04:53:15;;;;;;;14.5;3.6;;;;;;;;;;;;;
2024/04/09 04:55:40;;;;;;;6.7;3.3;;;;;;;;;;;;;
2024/04/09 04:58:06;;;;;;;14.1;3.2;;;;;;;;;;;;;
2024/04/09 05:00:30;;;;;;;12.1;3;;;;;;;;;;;;;
2024/04/09 05:02:55;;;;;;;14.9;3.1;;;;;;;;;;;;;
2024/04/09 05:05:21;;;;;;;15.1;3.6;;;;;;;;;;;;;
2024/04/09 05:07:46;;;;;;;12.7;3.3;;;;;;;;;;;;;
2024/04/09 05:10:12;;;;;;;9.2;3.1;;;;;;;;;;;;;
2024/04/09 05:12:36;;;;;;;8.7;2.8;;;;;;;;;;;;;
2024/04/09 05:15:01;;;;;;;10.1;3.2;;;;;;;;;;;;;
2024/04/09 05:17:27;;;;;;;10.8;3.1;;;;;;;;;;;;;
2024/04/09 05:19:51;;;;;;;10.1;3.6;;;;;;;;;;;;;
2024/04/09 05:22:17;;;;;;;10.3;2.9;;;;;;;;;;;;;
2024/04/09 05:24:44;;;;;;;8.8;3.5;;;;;;;;;;;;;
2024/04/09 05:27:07;;;;;;;10.5;3.3;;;;;;;;;;;;;
2024/04/09 05:29:32;;;;;;;10.2;3;;;;;;;;;;;;;
2024/04/09 05:31:57;;;;;;;14.4;4.1;;;;;;;;;;;;;
2024/04/09 05:34:22;;;;;;;12.3;3.5;;;;;;;;;;;;;
2024/04/09 05:36:47;;;;;;;14.3;3.2;;;;;;;;;;;;;
2024/04/09 05:39:12;;;;;;;13.4;3.3;;;;;;;;;;;;;
2024/04/09 05:41:37;;;;;;;11.4;4;;;;;;;;;;;;;
2024/04/09 05:44:03;;;;;;;10.5;3.3;;;;;;;;;;;;;
2024/04/09 05:46:28;;;;;;;17.8;3.5;;;;;;;;;;;;;
2024/04/09 05:48:53;;;;;;;12.8;3.3;;;;;;;;;;;;;
2024/04/09 05:51:18;;;;;;;15.3;3.2;;;;;;;;;;;;;
2024/04/09 05:53:43;;;;;;;17.7;4.5;;;;;;;;;;;;;
2024/04/09 05:56:08;;;;;;;9.3;3.3;;;;;;;;;;;;;
2024/04/09 05:58:34;;;;;;;10.3;3.6;;;;;;;;;;;;;
2024/04/09 06:01:00;;;;;;;17.2;3.4;;;;;;;;;;;;;
2024/04/09 06:03:24;;;;;;;12.8;3.5;;;;;;;;;;;;;
2024/04/09 06:05:51;;;;;;;15.6;3.8;;;;;;;;;;;;;
2024/04/09 06:08:14;;;;;;;13.3;4;;;;;;;;;;;;;
2024/04/09 06:10:39;;;;;;;14.4;3.9;;;;;;;;;;;;;
2024/04/09 06:13:04;;;;;;;14.5;3.5;;;;;;;;;;;;;
2024/04/09 06:15:29;;;;;;;11.2;3.3;;;;;;;;;;;;;
2024/04/09 06:17:54;;;;;;;14.9;3.8;;;;;;;;;;;;;
2024/04/09 06:20:19;;;;;;;13.5;3.5;;;;;;;;;;;;;
2024/04/09 06:22:44;;;;;;;10.6;3.1;;;;;;;;;;;;;
2024/04/09 06:25:10;;;;;;;16.4;3.8;;;;;;;;;;;;;
2024/04/09 06:27:35;;;;;;;15.7;3.8;;;;;;;;;;;;;
2024/04/09 06:30:00;;;;;;;8.9;3.6;;;;;;;;;;;;;
2024/04/09 06:32:25;;;;;;;9.6;3.3;;;;;;;;;;;;;
2024/04/09 06:34:50;;;;;;;12.4;3.4;;;;;;;;;;;;;
2024/04/09 06:37:15;;;;;;;15.6;3.6;;;;;;;;;;;;;
2024/04/09 06:39:40;;;;;;;12;3.6;;;;;;;;;;;;;
2024/04/09 06:42:06;;;;;;;12.6;3.2;;;;;;;;;;;;;
2024/04/09 06:44:30;;;;;;;10.1;3.6;;;;;;;;;;;;;
2024/04/09 06:46:56;;;;;;;12.5;3.9;;;;;;;;;;;;;
2024/04/09 06:49:21;;;;;;;16.1;3.9;;;;;;;;;;;;;
2024/04/09 06:51:46;;;;;;;11.5;3.5;;;;;;;;;;;;;
2024/04/09 06:54:11;;;;;;;9.8;3.6;;;;;;;;;;;;;
2024/04/09 06:56:36;;;;;;;14.2;4.3;;;;;;;;;;;;;
2024/04/09 06:59:01;;;;;;;11.1;4.2;;;;;;;;;;;;;
2024/04/09 07:01:26;;;;;;;15.4;4.4;;;;;;;;;;;;;
2024/04/09 07:03:51;;;;;;;16.6;4.1;;;;;;;;;;;;;
2024/04/09 07:06:16;;;;;;;13.7;4.4;;;;;;;;;;;;;
2024/04/09 07:08:41;;;;;;;13.7;4.1;;;;;;;;;;;;;
2024/04/09 07:11:06;;;;;;;17.1;4.5;;;;;;;;;;;;;
2024/04/09 07:13:32;;;;;;;19.8;4.6;;;;;;;;;;;;;
2024/04/09 07:15:58;;;;;;;15.9;4.1;;;;;;;;;;;;;
2024/04/09 07:18:22;;;;;;;16.7;4.2;;;;;;;;;;;;;
2024/04/09 07:20:49;;;;;;;14.9;3.8;;;;;;;;;;;;;
2024/04/09 07:23:12;;;;;;;12.1;3.3;;;;;;;;;;;;;
2024/04/09 07:25:37;;;;;;;9.8;3.5;;;;;;;;;;;;;
2024/04/09 07:28:02;;;;;;;14.8;3.2;;;;;;;;;;;;;
2024/04/09 07:30:27;;;;;;;16.3;3.8;;;;;;;;;;;;;
2024/04/09 07:32:52;;;;;;;9.4;3.5;;;;;;;;;;;;;
2024/04/09 07:35:17;;;;;;;12.7;3.4;;;;;;;;;;;;;
2024/04/09 07:37:42;;;;;;;12.3;3.1;;;;;;;;;;;;;
2024/04/09 07:40:08;;;;;;;13.2;3.6;;;;;;;;;;;;;
2024/04/09 07:42:33;;;;;;;16.4;4.1;;;;;;;;;;;;;
2024/04/09 07:44:58;;;;;;;14.9;4.3;;;;;;;;;;;;;
2024/04/09 07:47:23;;;;;;;16.6;4.4;;;;;;;;;;;;;
2024/04/09 07:49:48;;;;;;;15.8;3.6;;;;;;;;;;;;;
2024/04/09 07:52:13;;;;;;;12.7;4.3;;;;;;;;;;;;;
2024/04/09 07:54:38;;;;;;;9.1;3.3;;;;;;;;;;;;;
2024/04/09 07:57:04;;;;;;;13.9;4.1;;;;;;;;;;;;;
2024/04/09 07:59:29;;;;;;;18.1;4.1;;;;;;;;;;;;;
2024/04/09 08:01:54;;;;;;;13.2;4;;;;;;;;;;;;;
2024/04/09 08:04:19;;;;;;;10.5;3.4;;;;;;;;;;;;;
2024/04/09 08:06:44;;;;;;;10.6;3.8;;;;;;;;;;;;;
2024/04/09 08:09:11;;;;;;;9.6;3.2;;;;;;;;;;;;;
2024/04/09 08:11:41;;;;;;;9.6;3.1;;;;;;;;;;;;;
2024/04/09 08:14:00;;;;;;;11.9;3.6;;;;;;;;;;;;;
2024/04/09 08:16:25;;;;;;;14;3.3;;;;;;;;;;;;;
2024/04/09 08:18:50;;;;;;;15.3;3;;;;;;;;;;;;;
2024/04/09 08:21:15;;;;;;;13.2;3.2;;;;;;;;;;;;;
2024/04/09 08:23:40;;;;;;;13;3;;;;;;;;;;;;;
2024/04/09 08:26:05;;;;;;;14.2;3.2;;;;;;;;;;;;;
2024/04/09 08:28:31;;;;;;;10.6;2.7;;;;;;;;;;;;;
2024/04/09 08:30:55;;;;;;;12.8;3.4;;;;;;;;;;;;;
2024/04/09 08:33:21;;;;;;;12.7;3.2;;;;;;;;;;;;;
2024/04/09 08:35:45;;;;;;;13;2.9;;;;;;;;;;;;;
2024/04/09 08:38:12;;;;;;;8.1;3.2;;;;;;;;;;;;;
2024/04/09 08:40:36;;;;;;;10.1;3;;;;;;;;;;;;;
2024/04/09 08:43:01;;;;;;;10.2;3.3;;;;;;;;;;;;;
2024/04/09 08:45:26;;;;;;;16.6;2.8;;;;;;;;;;;;;
2024/04/09 08:47:51;;;;;;;11.5;3.3;;;;;;;;;;;;;
2024/04/09 08:50:16;;;;;;;8.9;2.7;;;;;;;;;;;;;
2024/04/09 08:52:42;;;;;;;7;2.6;;;;;;;;;;;;;
2024/04/09 08:55:07;;;;;;;10.1;3.3;;;;;;;;;;;;;
2024/04/09 08:57:32;;;;;;;12.1;3.1;;;;;;;;;;;;;
2024/04/09 08:59:57;;;;;;;10.6;2.7;;;;;;;;;;;;;
2024/04/09 09:02:22;;;;;;;9.2;2.4;;;;;;;;;;;;;
2024/04/09 09:04:47;;;;;;;10.4;2.8;;;;;;;;;;;;;
2024/04/09 09:07:12;;;;;;;11.5;2.7;;;;;;;;;;;;;
2024/04/09 09:09:37;;;;;;;13.1;3;;;;;;;;;;;;;
2024/04/09 09:12:03;;;;;;;9.6;2.8;;;;;;;;;;;;;
2024/04/09 09:14:27;;;;;;;10.2;2.9;;;;;;;;;;;;;
2024/04/09 09:16:52;;;;;;;10.4;2.7;;;;;;;;;;;;;
2024/04/09 09:19:18;;;;;;;10.8;2.8;;;;;;;;;;;;;
2024/04/09 09:21:42;;;;;;;12.8;3.2;;;;;;;;;;;;;
2024/04/09 09:24:08;;;;;;;9.9;3.4;;;;;;;;;;;;;
2024/04/09 09:26:33;;;;;;;12.7;3.3;;;;;;;;;;;;;
2024/04/09 09:28:58;;;;;;;12.4;3.8;;;;;;;;;;;;;
2024/04/09 09:31:23;;;;;;;14.4;2.9;;;;;;;;;;;;;
2024/04/09 09:33:48;;;;;;;14.3;3.6;;;;;;;;;;;;;
2024/04/09 09:36:14;;;;;;;16.3;3.4;;;;;;;;;;;;;
2024/04/09 09:38:39;;;;;;;15.8;2.9;;;;;;;;;;;;;
2024/04/09 09:41:04;;;;;;;14.8;3.6;;;;;;;;;;;;;
2024/04/09 09:43:29;;;;;;;17.6;3.1;;;;;;;;;;;;;
2024/04/09 09:45:54;;;;;;;14.6;3.5;;;;;;;;;;;;;
2024/04/09 09:48:19;;;;;;;15.6;3.7;;;;;;;;;;;;;
2024/04/09 09:50:44;;;;;;;21;4.2;;;;;;;;;;;;;
2024/04/09 09:53:10;;;;;;;19.5;4;;;;;;;;;;;;;
2024/04/09 09:55:35;;;;;;;16.3;3.2;;;;;;;;;;;;;
2024/04/09 09:58:00;;;;;;;19.9;3.7;;;;;;;;;;;;;
2024/04/09 10:00:26;;;;;;;15.9;3.6;;;;;;;;;;;;;
2024/04/09 10:02:50;;;;;;;20.4;3.4;;;;;;;;;;;;;
2024/04/09 10:05:15;;;;;;;15.1;3.3;;;;;;;;;;;;;
2024/04/09 10:07:41;;;;;;;18.2;3.8;;;;;;;;;;;;;
2024/04/09 10:10:06;;;;;;;14;4.2;;;;;;;;;;;;;
2024/04/09 10:12:31;;;;;;;17.8;4.1;;;;;;;;;;;;;
2024/04/09 10:14:56;;;;;;;14.7;3.5;;;;;;;;;;;;;
2024/04/09 10:17:21;;;;;;;9.4;3.3;;;;;;;;;;;;;
2024/04/09 10:19:47;;;;;;;23.8;4.3;;;;;;;;;;;;;
2024/04/09 10:22:12;;;;;;;113;11.9;;;;;;;;;;;;;
2024/04/09 10:24:37;;;;;;;19.3;4.3;;;;;;;;;;;;;
2024/04/09 10:27:04;;;;;;;15.1;4;;;;;;;;;;;;;
2024/04/09 10:29:28;;;;;;;16.5;3.6;;;;;;;;;;;;;
2024/04/09 10:31:53;;;;;;;25.1;4.2;;;;;;;;;;;;;
2024/04/09 10:34:18;;;;;;;14.9;4;;;;;;;;;;;;;
2024/04/09 10:36:44;;;;;;;14;3.7;;;;;;;;;;;;;
2024/04/09 10:39:08;;;;;;;13.4;3.3;;;;;;;;;;;;;
2024/04/09 10:41:33;;;;;;;19.3;3.8;;;;;;;;;;;;;
2024/04/09 10:43:58;;;;;;;15.8;3.8;;;;;;;;;;;;;
2024/04/09 10:46:24;;;;;;;22.6;4.2;;;;;;;;;;;;;
2024/04/09 10:48:49;;;;;;;19;4.1;;;;;;;;;;;;;
2024/04/09 10:51:14;;;;;;;18.5;3.5;;;;;;;;;;;;;
2024/04/09 10:53:39;;;;;;;18.2;4.2;;;;;;;;;;;;;
2024/04/09 10:56:04;;;;;;;20.5;4.6;;;;;;;;;;;;;
2024/04/09 10:58:30;;;;;;;16.4;3.9;;;;;;;;;;;;;
2024/04/09 11:00:56;;;;;;;19.2;3.9;;;;;;;;;;;;;
2024/04/09 11:03:20;;;;;;;18.6;3.2;;;;;;;;;;;;;
2024/04/09 11:05:45;;;;;;;19.2;4.2;;;;;;;;;;;;;
2024/04/09 11:08:10;;;;;;;16.9;3.6;;;;;;;;;;;;;
2024/04/09 11:10:35;;;;;;;18.5;3.6;;;;;;;;;;;;;
2024/04/09 11:13:01;;;;;;;19.4;3.6;;;;;;;;;;;;;
2024/04/09 11:15:25;;;;;;;18.8;3.7;;;;;;;;;;;;;
2024/04/09 11:17:51;;;;;;;18.1;3.3;;;;;;;;;;;;;
2024/04/09 11:20:18;;;;;;;19.4;3.1;;;;;;;;;;;;;
2024/04/09 11:22:41;;;;;;;16.9;3.8;;;;;;;;;;;;;
2024/04/09 11:25:06;;;;;;;15.2;3.4;;;;;;;;;;;;;
2024/04/09 11:27:33;;;;;;;21.2;3.4;;;;;;;;;;;;;
2024/04/09 11:29:57;;;;;;;18.1;3.3;;;;;;;;;;;;;
2024/04/09 11:32:22;;;;;;;15;3.7;;;;;;;;;;;;;
2024/04/09 11:34:47;;;;;;;16;4;;;;;;;;;;;;;
2024/04/09 11:37:12;;;;;;;9.6;2.8;;;;;;;;;;;;;
2024/04/09 11:39:37;;;;;;;12.9;4;;;;;;;;;;;;;
2024/04/09 11:42:02;;;;;;;11.4;2.9;;;;;;;;;;;;;
2024/04/09 11:44:27;;;;;;;15.5;3.1;;;;;;;;;;;;;
2024/04/09 11:46:53;;;;;;;18;3.8;;;;;;;;;;;;;
2024/04/09 11:49:18;;;;;;;11;2.8;;;;;;;;;;;;;
2024/04/09 11:51:43;;;;;;;12.4;3.4;;;;;;;;;;;;;
2024/04/09 11:54:08;;;;;;;9.8;3;;;;;;;;;;;;;
2024/04/09 11:56:38;;;;;;;13.6;3.3;;;;;;;;;;;;;
2024/04/09 11:59:01;;;;;;;10.2;2.7;;;;;;;;;;;;;
2024/04/09 12:01:24;;;;;;;17.7;3.8;;;;;;;;;;;;;
2024/04/09 12:03:49;;;;;;;12.1;3.1;;;;;;;;;;;;;
2024/04/09 12:06:14;;;;;;;15.5;3.1;;;;;;;;;;;;;
2024/04/09 12:08:40;;;;;;;12.4;2.8;;;;;;;;;;;;;
2024/04/09 12:11:05;;;;;;;10.3;2.5;;;;;;;;;;;;;
2024/04/09 12:13:30;;;;;;;8.2;2.6;;;;;;;;;;;;;
2024/04/09 12:15:55;;;;;;;11.6;2.7;;;;;;;;;;;;;
2024/04/09 12:18:20;;;;;;;11.5;2.6;;;;;;;;;;;;;
2024/04/09 12:20:45;;;;;;;13.5;2.5;;;;;;;;;;;;;
2024/04/09 12:23:11;;;;;;;11.1;2.5;;;;;;;;;;;;;
2024/04/09 12:25:36;;;;;;;9.3;2.3;;;;;;;;;;;;;
2024/04/09 12:28:01;;;;;;;11.6;2.8;;;;;;;;;;;;;
2024/04/09 12:30:29;;;;;;;12.7;2.9;;;;;;;;;;;;;
2024/04/09 12:32:52;;;;;;;9.2;1.9;;;;;;;;;;;;;
2024/04/09 12:35:16;;;;;;;7.6;2.1;;;;;;;;;;;;;
2024/04/09 12:37:42;;;;;;;7.2;2.4;;;;;;;;;;;;;
2024/04/09 12:40:08;;;;;;;7.2;1.6;;;;;;;;;;;;;
2024/04/09 12:42:32;;;;;;;7.8;2.2;;;;;;;;;;;;;
2024/04/09 12:44:57;;;;;;;8.5;1.9;;;;;;;;;;;;;
2024/04/09 12:47:23;;;;;;;7.8;2.4;;;;;;;;;;;;;
2024/04/09 12:49:47;;;;;;;6.9;2.2;;;;;;;;;;;;;
2024/04/09 12:52:12;;;;;;;5;2;;;;;;;;;;;;;
2024/04/09 12:54:37;;;;;;;14.8;2.8;;;;;;;;;;;;;
2024/04/09 12:57:02;;;;;;;9.4;2.2;;;;;;;;;;;;;
2024/04/09 12:59:28;;;;;;;7.7;2;;;;;;;;;;;;;
2024/04/09 13:01:52;;;;;;;8;2.1;;;;;;;;;;;;;
2024/04/09 13:04:17;;;;;;;7.4;1.9;;;;;;;;;;;;;
2024/04/09 13:06:43;;;;;;;4.5;1.4;;;;;;;;;;;;;
2024/04/09 13:09:09;;;;;;;8.6;2.1;;;;;;;;;;;;;
2024/04/09 13:11:33;;;;;;;5.6;1.6;;;;;;;;;;;;;
2024/04/09 13:13:59;;;;;;;8.5;1.9;;;;;;;;;;;;;
2024/04/09 13:16:23;;;;;;;3.1;1.7;;;;;;;;;;;;;
2024/04/09 13:18:48;;;;;;;6.8;1.7;;;;;;;;;;;;;
2024/04/09 13:21:13;;;;;;;5.4;1.6;;;;;;;;;;;;;
2024/04/09 13:23:39;;;;;;;4.5;1.6;;;;;;;;;;;;;
2024/04/09 13:26:04;;;;;;;6.8;1.5;;;;;;;;;;;;;
2024/04/09 13:28:30;;;;;;;9;1.8;;;;;;;;;;;;;
2024/04/09 13:30:54;;;;;;;5.2;1.4;;;;;;;;;;;;;
2024/04/09 13:33:20;;;;;;;6.8;1.6;;;;;;;;;;;;;
2024/04/09 13:35:44;;;;;;;3.6;1;;;;;;;;;;;;;
2024/04/09 13:38:10;;;;;;;4.4;1;;;;;;;;;;;;;
2024/04/09 13:40:35;;;;;;;3.3;1.1;;;;;;;;;;;;;
2024/04/09 13:43:00;;;;;;;2.9;0.9;;;;;;;;;;;;;
2024/04/09 13:45:25;;;;;;;2.4;0.8;;;;;;;;;;;;;
2024/04/09 13:47:50;;;;;;;3.2;0.8;;;;;;;;;;;;;
2024/04/09 13:50:16;;;;;;;2.8;0.9;;;;;;;;;;;;;
2024/04/09 13:52:40;;;;;;;5.5;1.3;;;;;;;;;;;;;
2024/04/09 13:55:08;;;;;;;4.6;1;;;;;;;;;;;;;
2024/04/09 13:57:31;;;;;;;8.7;1.2;;;;;;;;;;;;;
2024/04/09 13:59:56;;;;;;;5.2;0.6;;;;;;;;;;;;;
2024/04/09 14:02:21;;;;;;;1.2;0.6;;;;;;;;;;;;;
2024/04/09 14:04:47;;;;;;;2.6;0.9;;;;;;;;;;;;;
2024/04/09 14:07:11;;;;;;;4.6;0.8;;;;;;;;;;;;;
2024/04/09 14:09:36;;;;;;;3.2;0.6;;;;;;;;;;;;;
2024/04/09 14:12:02;;;;;;;0.9;0.6;;;;;;;;;;;;;
2024/04/09 14:14:26;;;;;;;1.8;0.6;;;;;;;;;;;;;
2024/04/09 14:16:51;;;;;;;3.9;0.5;;;;;;;;;;;;;
2024/04/09 14:19:19;;;;;;;2.2;0.6;;;;;;;;;;;;;
2024/04/09 14:21:42;;;;;;;2.9;0.6;;;;;;;;;;;;;
2024/04/09 14:24:07;;;;;;;2;0.4;;;;;;;;;;;;;
2024/04/09 14:26:32;;;;;;;1.7;0.4;;;;;;;;;;;;;
2024/04/09 14:28:57;;;;;;;2.6;0.7;;;;;;;;;;;;;
2024/04/09 14:31:22;;;;;;;11.8;1.3;;;;;;;;;;;;;
2024/04/09 14:33:49;;;;;;;1.8;0.5;;;;;;;;;;;;;
2024/04/09 14:36:13;;;;;;;2.4;0.7;;;;;;;;;;;;;
2024/04/09 14:38:38;;;;;;;2.9;0.7;;;;;;;;;;;;;
2024/04/09 14:41:03;;;;;;;3.1;0.6;;;;;;;;;;;;;
2024/04/09 14:43:28;;;;;;;0.9;0.4;;;;;;;;;;;;;
2024/04/09 14:45:53;;;;;;;5.9;1;;;;;;;;;;;;;
2024/04/09 14:48:18;;;;;;;0.8;0.3;;;;;;;;;;;;;
2024/04/09 14:50:43;;;;;;;2.3;0.5;;;;;;;;;;;;;
2024/04/09 14:53:09;;;;;;;1.3;0.5;;;;;;;;;;;;;
2024/04/09 14:55:34;;;;;;;1.1;0.4;;;;;;;;;;;;;
2024/04/09 14:57:59;;;;;;;2.2;0.5;;;;;;;;;;;;;
2024/04/09 15:00:24;;;;;;;1.7;0.6;;;;;;;;;;;;;
2024/04/09 15:02:49;;;;;;;2.3;0.5;;;;;;;;;;;;;
2024/04/09 15:05:14;;;;;;;1.2;0.6;;;;;;;;;;;;;
2024/04/09 15:07:39;;;;;;;1.1;0.5;;;;;;;;;;;;;
2024/04/09 15:10:04;;;;;;;1.6;0.5;;;;;;;;;;;;;
2024/04/09 15:12:29;;;;;;;1.5;0.5;;;;;;;;;;;;;
2024/04/09 15:14:54;;;;;;;1;0.6;;;;;;;;;;;;;
2024/04/09 15:17:19;;;;;;;1.6;0.7;;;;;;;;;;;;;
2024/04/09 15:19:45;;;;;;;1.4;0.6;;;;;;;;;;;;;
2024/04/09 15:22:10;;;;;;;0.9;0.5;;;;;;;;;;;;;
2024/04/09 15:24:35;;;;;;;1.1;0.5;;;;;;;;;;;;;
2024/04/09 15:27:00;;;;;;;3.1;0.7;;;;;;;;;;;;;
2024/04/09 15:29:26;;;;;;;1.4;0.4;;;;;;;;;;;;;
2024/04/09 15:31:50;;;;;;;2.6;0.4;;;;;;;;;;;;;
2024/04/09 15:34:15;;;;;;;2;0.5;;;;;;;;;;;;;
2024/04/09 15:36:40;;;;;;;2.1;0.5;;;;;;;;;;;;;
2024/04/09 15:39:09;;;;;;;0.7;0.4;;;;;;;;;;;;;
2024/04/09 15:41:30;;;;;;;0.7;0.4;;;;;;;;;;;;;
2024/04/09 15:43:56;;;;;;;1.5;0.5;;;;;;;;;;;;;
2024/04/09 15:46:21;;;;;;;3.7;0.5;;;;;;;;;;;;;
2024/04/09 15:48:46;;;;;;;1.8;0.4;;;;;;;;;;;;;
2024/04/09 15:51:12;;;;;;;2.2;0.7;;;;;;;;;;;;;
2024/04/09 15:53:37;;;;;;;0.4;0.4;;;;;;;;;;;;;
2024/04/09 15:56:01;;;;;;;3.1;0.4;;;;;;;;;;;;;
2024/04/09 15:58:30;;;;;;;1.5;0.4;;;;;;;;;;;;;
2024/04/09 16:00:53;;;;;;;0.8;0.4;;;;;;;;;;;;;
2024/04/09 16:03:17;;;;;;;0.4;0.4;;;;;;;;;;;;;
2024/04/09 16:05:42;;;;;;;0.5;0.3;;;;;;;;;;;;;
2024/04/09 16:08:07;;;;;;;1.6;0.4;;;;;;;;;;;;;
2024/04/09 16:10:32;;;;;;;1;0.4;;;;;;;;;;;;;
2024/04/09 16:12:57;;;;;;;1.2;0.4;;;;;;;;;;;;;
2024/04/09 16:15:23;;;;;;;0.5;0.3;;;;;;;;;;;;;
2024/04/09 16:17:48;;;;;;;0.3;0.3;;;;;;;;;;;;;
2024/04/09 16:20:13;;;;;;;0.6;0.2;;;;;;;;;;;;;
2024/04/09 16:22:39;;;;;;;0.9;0.3;;;;;;;;;;;;;
2024/04/09 16:25:03;;;;;;;0.3;0.2;;;;;;;;;;;;;
2024/04/09 16:27:28;;;;;;;2.5;0.4;;;;;;;;;;;;;
2024/04/09 16:29:54;;;;;;;0.4;0.3;;;;;;;;;;;;;
2024/04/09 16:32:21;;;;;;;1.4;0.3;;;;;;;;;;;;;
2024/04/09 16:34:44;;;;;;;0.7;0.4;;;;;;;;;;;;;
2024/04/09 16:37:11;;;;;;;0.3;0.3;;;;;;;;;;;;;
2024/04/09 16:39:35;;;;;;;0.3;0.3;;;;;;;;;;;;;
2024/04/09 16:41:59;;;;;;;0.3;0.3;;;;;;;;;;;;;
2024/04/09 16:44:25;;;;;;;0.5;0.4;;;;;;;;;;;;;
2024/04/09 16:46:49;;;;;;;0.5;0.4;;;;;;;;;;;;;
2024/04/09 16:49:15;;;;;;;0.3;0.3;;;;;;;;;;;;;
2024/04/09 16:51:40;;;;;;;0.4;0.3;;;;;;;;;;;;;
2024/04/09 16:54:05;;;;;;;0.3;0.2;;;;;;;;;;;;;
2024/04/09 16:56:30;;;;;;;0.1;0.1;;;;;;;;;;;;;
2024/04/09 16:58:56;;;;;;;0.2;0.1;;;;;;;;;;;;;
2024/04/09 17:01:20;;;;;;;0.3;0.2;;;;;;;;;;;;;
2024/04/09 17:03:45;;;;;;;0.1;0.1;;;;;;;;;;;;;
2024/04/09 17:06:11;;;;;;;0.3;0.1;;;;;;;;;;;;;
2024/04/09 17:08:36;;;;;;;0.1;0.1;;;;;;;;;;;;;
2024/04/09 17:11:01;;;;;;;0.5;0.2;;;;;;;;;;;;;
2024/04/09 17:13:26;;;;;;;0.2;0.2;;;;;;;;;;;;;
2024/04/09 17:15:51;;;;;;;0.4;0.2;;;;;;;;;;;;;
2024/04/09 17:18:16;;;;;;;0.1;0.1;;;;;;;;;;;;;
2024/04/09 17:20:42;;;;;;;0.1;0.1;;;;;;;;;;;;;
2024/04/09 17:23:07;;;;;;;0.2;0.2;;;;;;;;;;;;;
2024/04/09 17:25:32;;;;;;;0.2;0.1;;;;;;;;;;;;;
2024/04/09 17:27:57;;;;;;;1.7;0.2;;;;;;;;;;;;;
2024/04/09 17:30:22;;;;;;;0.8;0.2;;;;;;;;;;;;;
2024/04/09 17:32:47;;;;;;;0.7;0.2;;;;;;;;;;;;;
2024/04/09 17:35:12;;;;;;;0.3;0.3;;;;;;;;;;;;;
2024/04/09 17:37:38;;;;;;;0.3;0.3;;;;;;;;;;;;;
2024/04/09 17:40:03;;;;;;;0.3;0.3;;;;;;;;;;;;;
2024/04/09 17:42:28;;;;;;;0.3;0.3;;;;;;;;;;;;;
2024/04/09 17:44:53;;;;;;;0.8;0.3;;;;;;;;;;;;;
2024/04/09 17:47:20;;;;;;;0.6;0.3;;;;;;;;;;;;;
2024/04/09 17:49:44;;;;;;;0.3;0.3;;;;;;;;;;;;;
2024/04/09 17:52:09;;;;;;;0.3;0.3;;;;;;;;;;;;;
2024/04/09 17:54:34;;;;;;;0.2;0.2;;;;;;;;;;;;;
2024/04/09 17:56:59;;;;;;;0.3;0.3;;;;;;;;;;;;;
2024/04/09 17:59:24;;;;;;;0.7;0.3;;;;;;;;;;;;;
2024/04/09 18:01:49;;;;;;;1.1;0.6;;;;;;;;;;;;;
2024/04/09 18:04:15;;;;;;;0.5;0.3;;;;;;;;;;;;;
2024/04/09 18:06:40;;;;;;;0.5;0.3;;;;;;;;;;;;;
2024/04/09 18:09:05;;;;;;;0.7;0.4;;;;;;;;;;;;;
2024/04/09 18:11:30;;;;;;;0.5;0.2;;;;;;;;;;;;;
2024/04/09 18:13:55;;;;;;;0.7;0.3;;;;;;;;;;;;;
2024/04/09 18:16:20;;;;;;;0.8;0.3;;;;;;;;;;;;;
2024/04/09 18:18:46;;;;;;;0.7;0.3;;;;;;;;;;;;;
2024/04/09 18:21:10;;;;;;;0.7;0.3;;;;;;;;;;;;;
2024/04/09 18:23:35;;;;;;;0.2;0.2;;;;;;;;;;;;;
2024/04/09 18:26:01;;;;;;;0.5;0.5;;;;;;;;;;;;;
2024/04/09 18:28:26;;;;;;;0.2;0.1;;;;;;;;;;;;;
2024/04/09 18:30:51;;;;;;;1;0.7;;;;;;;;;;;;;
2024/04/09 18:33:16;;;;;;;0.3;0.3;;;;;;;;;;;;;
2024/04/09 18:35:41;;;;;;;0.4;0.4;;;;;;;;;;;;;
2024/04/09 18:38:06;;;;;;;0.9;0.7;;;;;;;;;;;;;
2024/04/09 18:40:31;;;;;;;0.4;0.4;;;;;;;;;;;;;
2024/04/09 18:42:56;;;;;;;0.5;0.5;;;;;;;;;;;;;
2024/04/09 18:45:21;;;;;;;0.6;0.5;;;;;;;;;;;;;
2024/04/09 18:47:46;;;;;;;0.2;0.2;;;;;;;;;;;;;
2024/04/09 18:50:11;;;;;;;0.4;0.4;;;;;;;;;;;;;
2024/04/09 18:52:37;;;;;;;0.5;0.5;;;;;;;;;;;;;
2024/04/09 18:55:03;;;;;;;0.2;0.2;;;;;;;;;;;;;
2024/04/09 18:57:27;;;;;;;0.3;0.3;;;;;;;;;;;;;
2024/04/09 18:59:52;;;;;;;0.3;0.3;;;;;;;;;;;;;
2024/04/09 19:02:17;;;;;;;1.1;0.4;;;;;;;;;;;;;
2024/04/09 19:04:42;;;;;;;0.7;0.6;;;;;;;;;;;;;
2024/04/09 19:07:07;;;;;;;0.7;0.7;;;;;;;;;;;;;
2024/04/09 19:09:32;;;;;;;1.4;1.1;;;;;;;;;;;;;
2024/04/09 19:11:57;;;;;;;1;0.9;;;;;;;;;;;;;
2024/04/09 19:14:23;;;;;;;0.7;0.5;;;;;;;;;;;;;
2024/04/09 19:16:48;;;;;;;0.6;0.4;;;;;;;;;;;;;
2024/04/09 19:19:13;;;;;;;0.5;0.3;;;;;;;;;;;;;
2024/04/09 19:21:38;;;;;;;0.3;0.2;;;;;;;;;;;;;
2024/04/09 19:24:03;;;;;;;0.6;0.6;;;;;;;;;;;;;
2024/04/09 19:26:28;;;;;;;0.3;0.3;;;;;;;;;;;;;
2024/04/09 19:28:54;;;;;;;0.3;0.3;;;;;;;;;;;;;
2024/04/09 19:31:21;;;;;;;1;0.6;;;;;;;;;;;;;
2024/04/09 19:33:44;;;;;;;0.4;0.4;;;;;;;;;;;;;
2024/04/09 19:36:09;;;;;;;0.4;0.4;;;;;;;;;;;;;
2024/04/09 19:38:34;;;;;;;0.4;0.4;;;;;;;;;;;;;
2024/04/09 19:40:59;;;;;;;0.4;0.4;;;;;;;;;;;;;
2024/04/09 19:43:24;;;;;;;0.4;0.4;;;;;;;;;;;;;
2024/04/09 19:45:49;;;;;;;0.4;0.3;;;;;;;;;;;;;
2024/04/09 19:48:14;;;;;;;1.2;0.3;;;;;;;;;;;;;
2024/04/09 19:50:39;;;;;;;0.3;0.3;;;;;;;;;;;;;
2024/04/09 19:53:05;;;;;;;0.3;0.3;;;;;;;;;;;;;
2024/04/09 19:55:29;;;;;;;1;0.3;;;;;;;;;;;;;
2024/04/09 19:57:55;;;;;;;0.5;0.3;;;;;;;;;;;;;
2024/04/09 20:00:19;;;;;;;0.3;0.3;;;;;;;;;;;;;
2024/04/09 20:02:44;;;;;;;0.3;0.3;;;;;;;;;;;;;
2024/04/09 20:05:10;;;;;;;0.3;0.2;;;;;;;;;;;;;
2024/04/09 20:07:36;;;;;;;0.2;0.2;;;;;;;;;;;;;
2024/04/09 20:10:00;;;;;;;0.4;0.3;;;;;;;;;;;;;
2024/04/09 20:12:25;;;;;;;0.3;0.3;;;;;;;;;;;;;
2024/04/09 20:14:51;;;;;;;1.4;0.4;;;;;;;;;;;;;
2024/04/09 20:17:15;;;;;;;0.8;0.3;;;;;;;;;;;;;
2024/04/09 20:19:40;;;;;;;0.3;0.3;;;;;;;;;;;;;